Latest Weather Observations for Penrith

IDN60901

Issued at 5:31 pm EDT Friday 19 December 2014 (issued every 10 minutes, with the page automatically refreshed every 10 minutes)

About weather observations | Map of Sydney area stations | Latest observations for Sydney area | Other Formats
Station Details ID: 067113 Name: PENRITH LAKES AWS Lat: -33.72 Lon: 150.68 Height: 24.7 m
Data from the previous 72 hours. | See also: Recent months at Penrith
Date/Time
EDT
Tmp

°C
App
Tmp
°C
Dew
Point
°C
Rel
Hum
%
Delta-T

°C
Wind Press
QNH
hPa
Press
MSL
hPa
Rain
since
9 am
mm
Dir
 
Spd
km/h
Gust
km/h
Spd
kts
Gust
kts
19/05:30pm 22.9 20.7 10.7 46 6.7 E 13 24 7 13 - - 0.0
19/05:00pm 22.4 19.4 10.5 47 6.5 ESE 17 24 9 13 - - 0.0
19/04:30pm 22.3 18.7 9.8 45 6.8 ESE 19 28 10 15 - - 0.0
19/04:00pm 24.2 21.4 11.5 45 7.2 SE 17 33 9 18 - - 0.0
19/03:30pm 22.6 19.5 10.4 46 6.7 SE 17 22 9 12 - - 0.0
19/03:00pm 23.0 19.6 10.4 45 6.9 ESE 19 28 10 15 - - 0.0
19/02:30pm 24.0 21.6 11.3 45 7.1 SE 15 24 8 13 - - 0.0
19/02:00pm 23.4 20.6 11.5 47 6.7 ESE 17 28 9 15 - - 0.0
19/01:30pm 23.1 19.9 11.2 47 6.6 ESE 19 30 10 16 - - 0.0
19/01:00pm 24.1 21.4 11.8 46 7.0 ENE 17 30 9 16 - - 0.0
19/12:30pm 25.1 22.7 11.3 42 7.8 E 15 22 8 12 - - 0.0
19/12:00pm 25.0 23.9 10.5 40 8.1 NE 7 17 4 9 - - 0.0
19/11:30am 24.6 24.1 11.9 45 7.2 SSE 6 9 3 5 - - 0.0
19/11:00am 23.8 23.4 12.4 48 6.5 ESE 6 11 3 6 - - 0.0
19/10:30am 22.8 22.5 11.5 49 6.3 NE 4 9 2 5 - - 0.0
19/10:00am 22.2 21.6 11.6 51 5.9 ENE 6 11 3 6 - - 0.0
19/09:30am 21.3 21.0 11.6 54 5.4 ESE 4 9 2 5 - - 0.0
19/09:00am 20.9 20.6 12.6 59 4.7 SE 6 9 3 5 - - 0.2
19/08:30am 19.9 18.5 12.2 61 4.3 S 11 17 6 9 - - 0.2
19/08:00am 19.6 18.6 13.3 67 3.6 SSE 11 17 6 9 - - 0.2
19/07:30am 18.7 17.6 13.1 70 3.2 SSE 11 20 6 11 - - 0.2
19/07:00am 18.4 17.0 13.3 72 2.9 S 13 20 7 11 - - 0.2
19/06:30am 18.0 16.4 12.9 72 2.9 S 13 19 7 10 - - 0.2
19/05:30am 20.3 18.0 5.9 39 7.2 SW 7 9 4 5 - - 0.2
19/05:00am 21.4 18.4 6.1 37 7.7 WSW 11 17 6 9 - - 0.2
19/04:30am 21.5 18.6 6.6 38 7.6 WSW 11 17 6 9 - - 0.2
19/04:00am 22.2 18.5 8.0 40 7.4 WSW 17 24 9 13 - - 0.2
19/03:30am 21.7 18.3 10.5 49 6.1 WSW 19 26 10 14 - - 0.2
19/03:00am 18.2 18.5 15.1 82 1.8 ESE 7 11 4 6 - - 0.2
19/02:30am 18.4 19.7 17.2 93 0.7 SSE 6 9 3 5 - - 0.2
19/02:00am 18.8 20.7 17.6 93 0.7 WSW 4 6 2 3 - - 0.2
19/01:30am 19.1 21.4 17.8 92 0.8 SSW 2 4 1 2 - - 0.2
19/01:00am 19.7 21.8 18.2 91 0.9 SSW 4 6 2 3 - - 0.2
19/12:30am 20.0 22.1 18.1 89 1.2 SSW 4 6 2 3 - - 0.2
 
Date/Time
EDT
Tmp

°C
App
Tmp
°C
Dew
Point
°C
Rel
Hum
%
Delta-T

°C
Wind Press
QNH
hPa
Press
MSL
hPa
Rain
since
9 am
mm
Dir
 
Spd
km/h
Gust
km/h
Spd
kts
Gust
kts
18/11:30pm 21.2 23.1 18.6 85 1.6 NW 6 7 3 4 - - 0.2
18/11:00pm 21.6 24.3 18.6 83 1.9 SSW 2 4 1 2 - - 0.2
18/10:30pm 22.5 25.7 18.9 80 2.3 CALM 0 0 0 0 - - 0.2
18/10:00pm 22.7 25.8 18.7 78 2.5 CALM 0 0 0 0 - - 0.2
18/09:30pm 23.8 26.4 19.3 76 2.9 NE 4 7 2 4 - - 0.2
18/09:00pm 23.5 25.8 18.6 74 3.1 SW 4 6 2 3 - - 0.2
18/08:30pm 24.2 26.4 18.4 70 3.7 S 4 6 2 3 - - 0.2
18/08:00pm 25.4 26.6 18.3 65 4.5 SE 9 13 5 7 - - 0.2
18/07:30pm 26.7 27.6 17.5 57 5.8 ESE 9 13 5 7 - - 0.2
18/07:00pm 28.4 30.1 16.3 47 7.5 NNE 2 6 1 3 - - 0.2
18/06:30pm 28.7 29.7 16.3 47 7.7 NE 6 7 3 4 - - 0.2
18/06:00pm 29.4 31.1 17.2 47 7.7 WSW 4 4 2 2 - - 0.2
18/05:30pm 28.4 29.8 16.3 47 7.5 E 4 6 2 3 - - 0.2
18/05:00pm 29.0 30.3 16.2 46 7.9 ENE 4 9 2 5 - - 0.2
18/04:30pm 28.4 29.5 16.7 49 7.3 NE 6 13 3 7 - - 0.2
18/04:00pm 28.1 28.4 16.1 48 7.4 N 9 17 5 9 - - 0.2
18/03:30pm 27.6 28.0 16.2 49 7.0 ENE 9 17 5 9 - - 0.2
18/03:00pm 27.2 28.0 15.9 50 6.9 NE 6 13 3 7 - - 0.2
18/02:30pm 26.7 26.5 16.6 54 6.3 NE 13 20 7 11 - - 0.2
18/02:00pm 25.2 25.3 16.4 58 5.4 NNE 11 17 6 9 - - 0.2
18/01:30pm 25.1 24.9 16.8 60 5.1 NE 13 22 7 12 - - 0.2
18/01:00pm 24.5 24.3 16.7 61 4.8 NNE 13 17 7 9 - - 0.2
18/12:30pm 23.4 24.1 16.2 64 4.4 NE 7 11 4 6 - - 0.2
18/12:00pm 23.4 24.3 16.7 66 4.1 NNW 7 13 4 7 - - 0.2
18/11:30am 22.5 23.5 16.3 68 3.8 N 6 13 3 7 - - 0.0
18/11:00am 21.6 23.1 16.6 73 3.0 SW 4 6 2 3 - - 0.0
18/10:30am 20.6 21.9 16.2 76 2.6 SSW 4 7 2 4 - - 0.0
18/10:00am 20.0 21.5 16.6 81 2.1 SSE 4 6 2 3 - - 0.0
18/09:30am 18.9 20.3 16.5 86 1.4 S 4 6 2 3 - - 0.0
18/09:00am 18.3 20.4 16.3 88 1.2 CALM 0 4 0 2 - - 0.0
18/08:30am 17.9 18.9 16.4 91 0.9 S 6 7 3 4 - - 0.0
18/08:00am 17.5 18.5 16.4 93 0.7 SSE 6 7 3 4 - - 0.0
18/07:30am 17.1 19.1 16.0 93 0.6 CALM 0 0 0 0 - - 0.0
18/07:00am 16.9 18.8 15.8 93 0.6 CALM 0 2 0 1 - - 0.0
18/06:30am 16.7 17.7 15.4 92 0.8 SSE 4 6 2 3 - - 0.0
18/06:00am 16.9 18.2 15.1 89 1.0 S 2 4 1 2 - - 0.0
18/05:30am 17.1 18.2 14.7 86 1.4 NW 2 4 1 2 - - 0.0
18/05:00am 17.1 17.4 14.6 85 1.4 S 6 6 3 3 - - 0.0
18/04:30am 17.2 17.5 14.5 84 1.6 S 6 9 3 5 - - 0.0
18/04:00am 17.2 17.5 14.5 84 1.6 S 6 6 3 3 - - 0.0
18/03:30am 17.2 17.5 14.5 84 1.6 SSW 6 9 3 5 - - 0.0
18/03:00am 17.4 18.8 14.3 82 1.8 CALM 0 2 0 1 - - 0.0
18/02:30am 17.4 18.3 14.1 81 1.9 W 2 4 1 2 - - 0.0
18/02:00am 17.3 17.8 14.0 81 1.9 WSW 4 6 2 3 - - 0.0
18/01:30am 17.2 18.5 14.1 82 1.8 CALM 0 2 0 1 - - 0.0
18/01:00am 17.2 17.4 14.1 82 1.8 SW 6 7 3 4 - - 0.0
18/12:30am 17.0 17.5 13.9 82 1.8 W 4 6 2 3 - - 0.0
18/12:00am 17.4 16.5 13.7 79 2.1 NNE 11 15 6 8 - - 0.0
 
Date/Time
EDT
Tmp

°C
App
Tmp
°C
Dew
Point
°C
Rel
Hum
%
Delta-T

°C
Wind Press
QNH
hPa
Press
MSL
hPa
Rain
since
9 am
mm
Dir
 
Spd
km/h
Gust
km/h
Spd
kts
Gust
kts
17/11:30pm 18.1 18.5 13.6 75 2.6 ENE 4 6 2 3 - - 0.0
17/11:00pm 18.0 18.8 13.7 76 2.4 NE 2 6 1 3 - - 0.0
17/10:30pm 17.4 17.8 13.7 79 2.1 WNW 4 6 2 3 - - 0.0
17/10:00pm 17.5 17.4 13.4 77 2.3 N 6 9 3 5 - - 0.0
17/09:30pm 18.5 17.3 12.9 70 3.1 ENE 11 19 6 10 - - 0.0
17/09:00pm 18.6 16.9 12.4 67 3.5 ESE 13 19 7 10 - - 0.0
17/08:30pm 18.9 17.9 12.4 66 3.6 E 9 17 5 9 - - 0.0
17/08:00pm 19.4 18.4 12.2 63 4.0 E 9 15 5 8 - - 0.0
17/07:30pm 19.6 18.3 12.4 63 4.0 ESE 11 19 6 10 - - 0.0
17/07:00pm 19.7 17.9 12.2 62 4.2 SSE 13 20 7 11 - - 0.0
17/06:30pm 19.9 18.2 12.4 62 4.2 ESE 13 20 7 11 - - 0.0
17/06:00pm 20.3 18.9 12.3 60 4.5 SE 11 17 6 9 - - 0.0
17/05:30pm 20.5 18.7 12.2 59 4.7 SE 13 19 7 10 - - 0.0
17/05:00pm 20.8 18.3 12.2 58 4.8 SE 17 22 9 12 - - 0.0
17/04:30pm 20.9 17.9 11.8 56 5.1 SE 19 26 10 14 - - 0.0
17/04:00pm 21.3 18.1 11.9 55 5.3 SE 20 30 11 16 - - 0.0
17/03:30pm 23.3 21.5 13.2 53 5.8 SE 15 24 8 13 - - 0.0
17/03:00pm 22.4 19.8 12.1 52 5.8 ESE 17 24 9 13 - - 0.0
17/02:30pm 23.3 20.9 12.6 51 6.1 ESE 17 28 9 15 - - 0.0
17/02:00pm 24.0 22.3 12.6 49 6.5 E 13 22 7 12 - - 0.0
17/01:30pm 23.3 21.9 12.3 50 6.3 ESE 11 17 6 9 - - 0.0
17/01:00pm 22.6 20.4 12.0 51 6.0 ESE 15 22 8 12 - - 0.0
17/12:30pm 23.0 21.7 12.6 52 5.9 E 11 17 6 9 - - 0.0
17/12:00pm 22.4 20.7 12.6 54 5.6 ESE 13 20 7 11 - - 0.0
17/11:30am 22.9 21.9 13.4 55 5.5 ESE 11 19 6 10 - - 0.0
17/11:00am 22.9 22.3 13.4 55 5.5 E 9 20 5 11 - - 0.0
17/10:30am 22.4 22.2 13.5 57 5.2 ESE 7 13 4 7 - - 0.0
17/10:00am 21.9 21.9 14.3 62 4.4 SE 7 13 4 7 - - 0.0
17/09:30am 21.2 21.2 14.1 64 4.1 S 7 13 4 7 - - 0.0
17/09:00am 20.9 21.4 15.0 69 3.5 SW 6 9 3 5 - - 0.0
17/08:30am 20.5 20.3 14.6 69 3.5 SE 9 17 5 9 - - 0.0
17/08:00am 21.0 20.9 14.9 68 3.6 SE 9 15 5 8 - - 0.0
17/07:30am 20.3 20.3 15.3 73 3.0 SSE 9 17 5 9 - - 0.0
17/07:00am 19.8 20.6 15.9 78 2.3 S 6 11 3 6 - - 0.0
17/06:30am 19.1 19.8 16.1 83 1.8 SW 7 9 4 5 - - 0.0
17/06:00am 17.1 16.7 14.0 82 1.8 WSW 9 11 5 6 - - 0.0
17/05:30am 16.9 16.9 13.6 81 1.9 S 6 13 3 7 - - 0.0
17/05:00am 17.3 17.4 14.0 81 1.9 SSW 6 7 3 4 - - 0.0
17/04:30am 17.1 17.4 14.4 84 1.5 SSE 6 9 3 5 - - 0.0
17/04:00am 17.7 18.2 15.1 85 1.5 SSW 6 7 3 4 - - 0.0
17/03:30am 18.1 18.7 15.9 87 1.3 S 7 9 4 5 - - 0.0
17/03:00am 19.1 21.2 17.2 89 1.2 SW 2 6 1 3 - - 0.0
17/02:30am 19.3 21.7 18.0 92 0.8 WSW 2 6 1 3 - - 0.0
17/02:00am 19.5 21.1 17.8 90 1.0 W 6 7 3 4 - - 0.0
17/01:30am 19.8 21.6 18.3 91 0.9 W 6 7 3 4 - - 0.0
17/01:00am 20.3 22.7 18.8 91 0.9 W 4 6 2 3 - - 0.0
17/12:30am 21.4 24.7 19.1 87 1.5 CALM 0 0 0 0 - - 0.0
17/12:00am 20.9 23.5 18.3 85 1.6 NNW 2 4 1 2 - - 0.0
 
Date/Time
EDT
Tmp

°C
App
Tmp
°C
Dew
Point
°C
Rel
Hum
%
Delta-T

°C
Wind Press
QNH
hPa
Press
MSL
hPa
Rain
since
9 am
mm
Dir
 
Spd
km/h
Gust
km/h
Spd
kts
Gust
kts
16/11:30pm 21.6 23.8 18.4 82 2.0 NNE 4 6 2 3 - - 0.0
16/11:00pm 22.1 25.0 18.3 79 2.4 CALM 0 0 0 0 - - 0.0
16/10:30pm 23.6 26.4 18.0 71 3.5 CALM 0 0 0 0 - - 0.0
16/10:00pm 23.9 26.0 18.1 70 3.6 SW 4 6 2 3 - - 0.0
16/09:30pm 25.0 26.2 18.2 66 4.3 SSW 9 13 5 7 - - 0.0
16/09:00pm 25.3 27.0 18.0 64 4.6 SW 6 7 3 4 - - 0.0
16/08:30pm 26.5 27.9 17.8 58 5.5 SSW 7 9 4 5 - - 0.0
16/08:00pm 28.1 29.5 17.3 52 6.8 S 6 9 3 5 - - 0.0
16/07:30pm 29.1 30.4 17.6 50 7.3 SE 7 11 4 6 - - 0.0
16/07:00pm 30.4 31.1 17.1 44 8.4 SSE 9 15 5 8 - - 0.0
16/06:30pm 30.9 30.9 17.2 43 8.7 SE 13 17 7 9 - - 0.0
16/06:00pm 32.0 32.0 16.3 39 9.9 ESE 11 15 6 8 - - 0.0

Latest Capital City Observations: Canberra | Sydney | Melbourne | Brisbane | Adelaide | Perth | Hobart | Darwin

Other Formats:

Comma delimited format used in spreadsheet applications
http://www.bom.gov.au/fwo/IDN60901/IDN60901.94763.axf

JavaScript Object Notation format (JSON) in row-major order
http://www.bom.gov.au/fwo/IDN60901/IDN60901.94763.json